Time;durP1;ratioP1;P1;durP2;ratioP2;P2;SDS_P1;SDS_P2;PMS_P1;PMS_P2;Temp;Humidity;BMP_temperature;BMP_pressure;BME280_temperature;BME280_humidity;BME280_pressure;Samples;Min_cycle;Max_cycle;Signal;HPM_P1;HPM_P2
2021/06/27 00:01:39;;;;;;;30.60;12.95;;;;;;;;;;4985467;28;20026;-83
2021/06/27 00:04:05;;;;;;;31.95;13.13;;;;;;;;;;4985417;28;20030;-82
2021/06/27 00:06:31;;;;;;;34.42;13.02;;;;;;;;;;4989514;28;20478;-81
2021/06/27 00:08:57;;;;;;;32.22;13.55;;;;;;;;;;4987333;28;20030;-82
2021/06/27 00:11:24;;;;;;;30.75;13.35;;;;;;;;;;4988640;28;20037;-81
2021/06/27 00:13:51;;;;;;;30.38;13.48;;;;;;;;;;4988578;28;20027;-83
2021/06/27 00:16:17;;;;;;;26.85;12.75;;;;;;;;;;4988229;28;20441;-86
2021/06/27 00:18:44;;;;;;;37.88;14.45;;;;;;;;;;4987503;28;20021;-82
2021/06/27 00:21:11;;;;;;;34.45;13.95;;;;;;;;;;4988640;28;20026;-82
2021/06/27 00:23:38;;;;;;;36.05;14.05;;;;;;;;;;4988768;28;20027;-80
2021/06/27 00:26:06;;;;;;;37.15;13.70;;;;;;;;;;4988278;28;20022;-82
2021/06/27 00:28:32;;;;;;;34.83;13.95;;;;;;;;;;4988118;28;20028;-85
2021/06/27 00:31:00;;;;;;;34.00;14.15;;;;;;;;;;4986801;28;20034;-82
2021/06/27 00:33:26;;;;;;;36.63;13.63;;;;;;;;;;4969063;28;20552;-81
2021/06/27 00:35:53;;;;;;;33.13;13.45;;;;;;;;;;4980016;28;20053;-81
2021/06/27 00:38:19;;;;;;;40.30;13.82;;;;;;;;;;4970286;28;20028;-86
2021/06/27 00:40:46;;;;;;;37.05;14.27;;;;;;;;;;4970785;28;20531;-89
2021/06/27 00:43:13;;;;;;;34.63;13.57;;;;;;;;;;4987812;28;20027;-81
2021/06/27 00:45:39;;;;;;;32.70;13.45;;;;;;;;;;4986049;28;20497;-82
2021/06/27 00:48:06;;;;;;;32.25;14.18;;;;;;;;;;4987561;28;20150;-84
2021/06/27 00:50:34;;;;;;;29.50;13.35;;;;;;;;;;4987667;28;20044;-81
2021/06/27 00:53:01;;;;;;;37.50;14.95;;;;;;;;;;4987520;28;20031;-81
2021/06/27 00:55:27;;;;;;;28.83;13.10;;;;;;;;;;4987891;28;20018;-88
2021/06/27 00:57:54;;;;;;;33.05;15.80;;;;;;;;;;4986292;28;20022;-81
2021/06/27 01:00:24;;;;;;;31.35;15.40;;;;;;;;;;4987714;28;20144;-81
2021/06/27 01:02:50;;;;;;;31.85;14.20;;;;;;;;;;4987984;28;20022;-82
2021/06/27 01:05:18;;;;;;;33.33;15.20;;;;;;;;;;4985741;28;20087;-82
2021/06/27 01:07:44;;;;;;;29.92;13.60;;;;;;;;;;4987450;28;20141;-81
2021/06/27 01:10:11;;;;;;;35.72;14.32;;;;;;;;;;4987356;28;20064;-80
2021/06/27 01:12:37;;;;;;;36.75;13.40;;;;;;;;;;4972570;28;20396;-82
2021/06/27 01:15:04;;;;;;;37.75;12.95;;;;;;;;;;4990203;28;20102;-82
2021/06/27 01:17:30;;;;;;;41.70;14.90;;;;;;;;;;4971825;28;20401;-88
2021/06/27 01:19:57;;;;;;;40.45;14.02;;;;;;;;;;4989645;28;20378;-81
2021/06/27 01:22:24;;;;;;;27.02;12.50;;;;;;;;;;4988480;28;20390;-82
2021/06/27 01:24:51;;;;;;;28.52;13.93;;;;;;;;;;4989931;28;20073;-81
2021/06/27 01:27:17;;;;;;;34.83;15.00;;;;;;;;;;4989641;28;20045;-82
2021/06/27 01:29:43;;;;;;;33.60;15.05;;;;;;;;;;4989438;28;20033;-81
2021/06/27 01:32:11;;;;;;;33.15;13.30;;;;;;;;;;4989461;28;20077;-82
2021/06/27 01:34:42;;;;;;;37.90;14.43;;;;;;;;;;4988897;28;20030;-82
2021/06/27 01:37:09;;;;;;;29.55;14.13;;;;;;;;;;4987615;28;20034;-88
2021/06/27 01:39:35;;;;;;;31.52;14.57;;;;;;;;;;4988970;28;20483;-81
2021/06/27 01:42:01;;;;;;;41.65;14.75;;;;;;;;;;4989075;28;20037;-84
2021/06/27 01:44:28;;;;;;;32.67;15.88;;;;;;;;;;4989272;28;20068;-87
2021/06/27 01:46:56;;;;;;;33.97;14.93;;;;;;;;;;4987560;28;20134;-85
2021/06/27 01:49:22;;;;;;;39.55;15.88;;;;;;;;;;4989011;28;20022;-81
2021/06/27 01:51:49;;;;;;;34.83;14.35;;;;;;;;;;4988765;28;20101;-81
2021/06/27 01:54:15;;;;;;;35.58;15.20;;;;;;;;;;4988542;28;20104;-81
2021/06/27 01:56:41;;;;;;;35.63;13.95;;;;;;;;;;4987376;28;20092;-81
2021/06/27 01:59:08;;;;;;;34.92;13.25;;;;;;;;;;4988411;28;20025;-81
2021/06/27 02:01:38;;;;;;;35.80;14.15;;;;;;;;;;4988845;28;20089;-84
2021/06/27 02:04:06;;;;;;;35.15;14.18;;;;;;;;;;4988543;28;20022;-81
2021/06/27 02:06:35;;;;;;;34.35;14.80;;;;;;;;;;4979387;28;20027;-82
2021/06/27 02:09:03;;;;;;;42.83;14.27;;;;;;;;;;4987199;28;20049;-85
2021/06/27 02:11:29;;;;;;;35.65;14.82;;;;;;;;;;4980122;28;20133;-81
2021/06/27 02:13:56;;;;;;;39.13;15.75;;;;;;;;;;4987602;28;20033;-82
2021/06/27 02:16:22;;;;;;;30.75;14.23;;;;;;;;;;4985498;28;20415;-81
2021/06/27 02:18:49;;;;;;;30.38;14.65;;;;;;;;;;4987424;28;20046;-85
2021/06/27 02:21:21;;;;;;;35.95;14.32;;;;;;;;;;4983096;28;20035;-82
2021/06/27 02:23:47;;;;;;;34.72;14.93;;;;;;;;;;4985041;28;20675;-81
2021/06/27 02:26:14;;;;;;;29.60;14.65;;;;;;;;;;4972114;28;20058;-81
2021/06/27 02:28:41;;;;;;;29.52;14.43;;;;;;;;;;4975948;28;20023;-82
2021/06/27 02:31:07;;;;;;;36.80;15.90;;;;;;;;;;4972818;28;20122;-81
2021/06/27 02:33:33;;;;;;;35.28;16.05;;;;;;;;;;4980108;28;20029;-81
2021/06/27 02:36:00;;;;;;;35.78;16.08;;;;;;;;;;4980155;28;20101;-81
2021/06/27 02:38:26;;;;;;;37.20;16.40;;;;;;;;;;4976683;28;20057;-81
2021/06/27 02:40:54;;;;;;;37.83;15.52;;;;;;;;;;4976184;28;20035;-82
2021/06/27 02:43:20;;;;;;;36.97;16.33;;;;;;;;;;4977138;28;20519;-86
2021/06/27 02:45:47;;;;;;;39.40;16.98;;;;;;;;;;4982858;28;20023;-82
2021/06/27 02:48:14;;;;;;;37.03;18.23;;;;;;;;;;4974610;28;20448;-81
2021/06/27 02:50:40;;;;;;;33.17;16.58;;;;;;;;;;4979817;28;20026;-82
2021/06/27 02:53:07;;;;;;;29.30;14.20;;;;;;;;;;4974884;28;20491;-82
2021/06/27 02:55:33;;;;;;;31.63;15.77;;;;;;;;;;4978238;28;20030;-81
2021/06/27 02:57:59;;;;;;;33.38;15.80;;;;;;;;;;4973604;28;20459;-81
2021/06/27 03:00:26;;;;;;;34.22;16.40;;;;;;;;;;4976913;28;20530;-81
2021/06/27 03:02:52;;;;;;;30.08;16.48;;;;;;;;;;4972897;28;20035;-81
2021/06/27 03:05:18;;;;;;;35.35;16.90;;;;;;;;;;4973214;28;20022;-85
2021/06/27 03:07:45;;;;;;;31.25;17.38;;;;;;;;;;4969484;28;20022;-81
2021/06/27 03:10:13;;;;;;;31.33;15.60;;;;;;;;;;4969523;28;20509;-81
2021/06/27 03:12:43;;;;;;;33.40;15.73;;;;;;;;;;4979354;28;20553;-80
2021/06/27 03:15:10;;;;;;;32.83;15.73;;;;;;;;;;4974093;28;20065;-81
2021/06/27 03:17:36;;;;;;;33.58;15.90;;;;;;;;;;4984709;28;20087;-81
2021/06/27 03:20:03;;;;;;;33.85;15.82;;;;;;;;;;4965843;28;20100;-85
2021/06/27 03:22:29;;;;;;;37.92;16.05;;;;;;;;;;4983468;28;20023;-81
2021/06/27 03:24:56;;;;;;;27.33;15.20;;;;;;;;;;4988418;28;20157;-80
2021/06/27 03:27:22;;;;;;;50.25;15.88;;;;;;;;;;4983844;28;20037;-82
2021/06/27 03:29:49;;;;;;;45.35;15.02;;;;;;;;;;4988986;28;20684;-81
2021/06/27 03:32:15;;;;;;;34.40;15.70;;;;;;;;;;4986992;28;20127;-81
2021/06/27 03:34:41;;;;;;;35.50;15.52;;;;;;;;;;4984211;28;20023;-81
2021/06/27 03:37:07;;;;;;;31.08;14.73;;;;;;;;;;4988962;28;20566;-81
2021/06/27 03:39:33;;;;;;;33.85;15.43;;;;;;;;;;4986867;28;20029;-80
2021/06/27 03:42:00;;;;;;;40.80;15.07;;;;;;;;;;4975434;28;20384;-81
2021/06/27 03:44:27;;;;;;;38.67;15.15;;;;;;;;;;4987586;28;20431;-82
2021/06/27 03:46:54;;;;;;;35.17;15.02;;;;;;;;;;4991365;28;20042;-83
2021/06/27 03:49:20;;;;;;;24.05;13.15;;;;;;;;;;4988296;28;20176;-82
2021/06/27 03:51:47;;;;;;;29.20;15.02;;;;;;;;;;4989596;28;20081;-84
2021/06/27 03:54:13;;;;;;;37.50;13.70;;;;;;;;;;4993231;28;20490;-84
2021/06/27 03:56:39;;;;;;;32.35;14.88;;;;;;;;;;4989040;28;20030;-81
2021/06/27 03:59:06;;;;;;;35.70;16.75;;;;;;;;;;4993232;28;20164;-87
2021/06/27 04:01:32;;;;;;;27.98;15.68;;;;;;;;;;4987305;28;20022;-81
2021/06/27 04:04:00;;;;;;;32.08;15.13;;;;;;;;;;4991159;28;20445;-81
2021/06/27 04:06:26;;;;;;;37.47;16.52;;;;;;;;;;4988014;28;20976;-81
2021/06/27 04:08:52;;;;;;;38.22;16.73;;;;;;;;;;4990197;28;20031;-81
2021/06/27 04:11:18;;;;;;;37.08;16.25;;;;;;;;;;4987190;28;20100;-81
2021/06/27 04:13:45;;;;;;;38.08;17.27;;;;;;;;;;4988539;28;20018;-80
2021/06/27 04:16:11;;;;;;;38.50;16.90;;;;;;;;;;4973418;28;20850;-81
2021/06/27 04:18:38;;;;;;;58.20;18.80;;;;;;;;;;4974302;28;20015;-80
2021/06/27 04:21:04;;;;;;;43.00;18.10;;;;;;;;;;4974807;28;20026;-80
2021/06/27 04:23:32;;;;;;;38.22;17.55;;;;;;;;;;4973986;28;20051;-81
2021/06/27 04:25:58;;;;;;;37.50;16.00;;;;;;;;;;4978885;28;20088;-81
2021/06/27 04:28:25;;;;;;;35.35;16.38;;;;;;;;;;4966955;28;20450;-81
2021/06/27 04:30:51;;;;;;;31.40;16.70;;;;;;;;;;4974803;28;20070;-81
2021/06/27 04:33:17;;;;;;;35.30;16.90;;;;;;;;;;4983763;28;20026;-85
2021/06/27 04:35:43;;;;;;;38.50;16.98;;;;;;;;;;4970156;28;20034;-81
2021/06/27 04:38:11;;;;;;;43.65;17.27;;;;;;;;;;4976772;28;20060;-81
2021/06/27 04:40:38;;;;;;;36.08;16.65;;;;;;;;;;4968933;28;20375;-81
2021/06/27 04:43:05;;;;;;;37.53;18.08;;;;;;;;;;4975352;28;20031;-80
2021/06/27 04:45:31;;;;;;;36.75;17.00;;;;;;;;;;4976496;28;20027;-81
2021/06/27 04:47:58;;;;;;;33.33;17.15;;;;;;;;;;4970735;28;20026;-85
2021/06/27 04:50:24;;;;;;;37.70;18.02;;;;;;;;;;4974227;28;20031;-81
2021/06/27 04:52:53;;;;;;;36.20;16.42;;;;;;;;;;4969702;28;20042;-81
2021/06/27 04:55:20;;;;;;;36.05;17.15;;;;;;;;;;4955935;28;20026;-83
2021/06/27 04:57:46;;;;;;;32.90;18.15;;;;;;;;;;4976169;28;20566;-81
2021/06/27 05:00:13;;;;;;;38.13;17.00;;;;;;;;;;4975156;28;20042;-80
2021/06/27 05:02:39;;;;;;;37.00;16.55;;;;;;;;;;4970887;28;20019;-81
2021/06/27 05:05:05;;;;;;;32.10;16.02;;;;;;;;;;4979112;28;20029;-80
2021/06/27 05:07:32;;;;;;;39.38;16.42;;;;;;;;;;4971693;28;20105;-83
2021/06/27 05:09:58;;;;;;;34.58;15.02;;;;;;;;;;4965557;28;20388;-80
2021/06/27 05:12:25;;;;;;;39.95;17.45;;;;;;;;;;4976562;28;20046;-79
2021/06/27 05:14:51;;;;;;;34.03;16.67;;;;;;;;;;4978089;28;20030;-80
2021/06/27 05:17:17;;;;;;;36.97;16.77;;;;;;;;;;4989106;28;20482;-80
2021/06/27 05:19:43;;;;;;;36.35;16.33;;;;;;;;;;4992325;28;20540;-79
2021/06/27 05:22:09;;;;;;;38.28;15.55;;;;;;;;;;4988339;28;20510;-80
2021/06/27 05:24:36;;;;;;;33.53;15.80;;;;;;;;;;4991536;28;20030;-86
2021/06/27 05:27:02;;;;;;;33.70;15.13;;;;;;;;;;4988584;28;20632;-80
2021/06/27 05:29:28;;;;;;;30.38;13.98;;;;;;;;;;4992469;28;20184;-80
2021/06/27 05:31:54;;;;;;;31.88;14.60;;;;;;;;;;4989132;28;20045;-82
2021/06/27 05:34:20;;;;;;;29.60;14.02;;;;;;;;;;4987323;28;20030;-80
2021/06/27 05:36:46;;;;;;;32.03;15.07;;;;;;;;;;4984310;28;20030;-80
2021/06/27 05:39:13;;;;;;;34.17;14.77;;;;;;;;;;4986955;28;20026;-87
2021/06/27 05:41:40;;;;;;;20.70;10.93;;;;;;;;;;4988437;28;20654;-82
2021/06/27 05:44:07;;;;;;;27.15;12.77;;;;;;;;;;4986132;28;20022;-80
2021/06/27 05:46:34;;;;;;;25.88;12.00;;;;;;;;;;4989850;28;20088;-79
2021/06/27 05:49:02;;;;;;;19.90;11.45;;;;;;;;;;4986191;28;20063;-80
2021/06/27 05:51:28;;;;;;;25.15;12.90;;;;;;;;;;4988773;28;20089;-81
2021/06/27 05:53:54;;;;;;;30.67;13.25;;;;;;;;;;4984670;28;20064;-80
2021/06/27 05:56:20;;;;;;;25.25;11.95;;;;;;;;;;4989677;28;20366;-80
2021/06/27 05:58:47;;;;;;;23.27;12.48;;;;;;;;;;4986297;28;20026;-81
2021/06/27 06:01:15;;;;;;;36.42;14.70;;;;;;;;;;4989228;28;20033;-80
2021/06/27 06:16:31;;;;;;;25.30;13.50;;;;;;;;;;5650505;22;21859;-78
2021/06/27 06:18:58;;;;;;;28.85;13.02;;;;;;;;;;6191041;23;20337;-73
2021/06/27 06:21:25;;;;;;;29.67;12.45;;;;;;;;;;6190707;23;20009;-73
2021/06/27 06:23:51;;;;;;;30.63;13.52;;;;;;;;;;6190781;23;20012;-75
2021/06/27 06:26:17;;;;;;;37.45;14.23;;;;;;;;;;6191481;23;20080;-73
2021/06/27 06:28:43;;;;;;;32.53;13.65;;;;;;;;;;6192636;23;20012;-73
2021/06/27 06:31:09;;;;;;;26.13;13.48;;;;;;;;;;6188804;23;20001;-74
2021/06/27 06:33:36;;;;;;;24.50;13.85;;;;;;;;;;6194052;23;20008;-74
2021/06/27 06:36:02;;;;;;;29.15;12.77;;;;;;;;;;6193847;23;20307;-73
2021/06/27 06:38:28;;;;;;;33.35;13.98;;;;;;;;;;6191487;23;20157;-72
2021/06/27 06:40:55;;;;;;;28.05;13.90;;;;;;;;;;6191681;23;20000;-77
2021/06/27 06:43:21;;;;;;;39.33;14.82;;;;;;;;;;6192309;23;20001;-77
2021/06/27 06:45:47;;;;;;;35.65;13.73;;;;;;;;;;6188987;23;20019;-77
2021/06/27 06:48:13;;;;;;;24.08;12.07;;;;;;;;;;6165916;23;20005;-77
2021/06/27 06:50:39;;;;;;;30.88;13.45;;;;;;;;;;6190439;23;20077;-77
2021/06/27 06:53:06;;;;;;;31.15;12.93;;;;;;;;;;6191151;23;20005;-77
2021/06/27 06:55:32;;;;;;;32.45;13.02;;;;;;;;;;6189077;23;19997;-77
2021/06/27 06:57:58;;;;;;;31.60;13.00;;;;;;;;;;6184595;23;20116;-75
2021/06/27 07:00:24;;;;;;;19.73;11.63;;;;;;;;;;6192004;23;20025;-76
2021/06/27 07:02:51;;;;;;;37.25;12.85;;;;;;;;;;6192975;23;20008;-75
2021/06/27 07:05:17;;;;;;;25.95;12.27;;;;;;;;;;6190684;23;20020;-76
2021/06/27 07:07:45;;;;;;;32.00;12.77;;;;;;;;;;6189145;23;20011;-75
2021/06/27 07:10:11;;;;;;;27.50;12.40;;;;;;;;;;6190988;23;20445;-74
2021/06/27 07:12:37;;;;;;;30.45;12.65;;;;;;;;;;6190967;23;20001;-75
2021/06/27 07:15:04;;;;;;;28.52;12.43;;;;;;;;;;6206528;23;19993;-75
2021/06/27 07:17:30;;;;;;;28.30;12.40;;;;;;;;;;6211941;23;20155;-75
2021/06/27 07:19:57;;;;;;;22.45;11.55;;;;;;;;;;6213933;23;20028;-75
2021/06/27 07:22:23;;;;;;;31.35;13.07;;;;;;;;;;6216976;23;20050;-77
2021/06/27 07:24:49;;;;;;;25.02;11.90;;;;;;;;;;6210079;23;20019;-76
2021/06/27 07:27:15;;;;;;;36.25;13.57;;;;;;;;;;6188047;23;20004;-75
2021/06/27 07:29:41;;;;;;;32.03;13.40;;;;;;;;;;6211744;23;20079;-75
2021/06/27 07:32:08;;;;;;;30.40;12.75;;;;;;;;;;6211418;23;20127;-75
2021/06/27 07:34:34;;;;;;;24.73;11.75;;;;;;;;;;6209936;23;20013;-75
2021/06/27 07:37:03;;;;;;;31.45;13.15;;;;;;;;;;6211664;23;20088;-75
2021/06/27 07:39:29;;;;;;;25.55;12.43;;;;;;;;;;6213196;23;20005;-75
2021/06/27 07:41:55;;;;;;;23.73;11.75;;;;;;;;;;6212436;23;20000;-74
2021/06/27 07:44:21;;;;;;;34.00;12.23;;;;;;;;;;6211158;23;20071;-75
2021/06/27 07:46:47;;;;;;;23.48;11.48;;;;;;;;;;6210115;23;20036;-75
2021/06/27 07:49:13;;;;;;;28.10;12.43;;;;;;;;;;6208498;23;20035;-75
2021/06/27 07:51:40;;;;;;;27.90;11.27;;;;;;;;;;6210270;23;20001;-76
2021/06/27 07:54:06;;;;;;;29.13;11.63;;;;;;;;;;6211753;23;20420;-76
2021/06/27 07:56:32;;;;;;;27.13;10.93;;;;;;;;;;6213916;23;20025;-75
2021/06/27 07:58:58;;;;;;;25.40;11.90;;;;;;;;;;6213861;23;20024;-75
2021/06/27 08:01:24;;;;;;;24.55;10.20;;;;;;;;;;6213878;23;20131;-75
2021/06/27 08:03:51;;;;;;;23.98;10.45;;;;;;;;;;6212054;23;20559;-75
2021/06/27 08:06:18;;;;;;;22.75;10.48;;;;;;;;;;6213236;23;20080;-75
2021/06/27 08:08:44;;;;;;;32.40;11.68;;;;;;;;;;6212471;23;20061;-78
2021/06/27 08:11:10;;;;;;;27.20;11.45;;;;;;;;;;6213386;23;20001;-74
2021/06/27 08:13:37;;;;;;;41.95;13.93;;;;;;;;;;6210584;23;20083;-78
2021/06/27 08:16:03;;;;;;;30.58;11.93;;;;;;;;;;6211871;23;20003;-75
2021/06/27 08:18:29;;;;;;;26.58;12.13;;;;;;;;;;6211910;23;20425;-76
2021/06/27 08:20:55;;;;;;;27.67;12.80;;;;;;;;;;6210901;23;19992;-75
2021/06/27 08:23:21;;;;;;;28.15;13.27;;;;;;;;;;6212398;23;20005;-75
2021/06/27 08:25:48;;;;;;;19.88;10.73;;;;;;;;;;6209294;23;20087;-75
2021/06/27 08:28:15;;;;;;;23.48;10.55;;;;;;;;;;6212224;23;20025;-76
2021/06/27 08:30:41;;;;;;;34.08;12.50;;;;;;;;;;6212711;23;20000;-76
2021/06/27 08:33:08;;;;;;;28.73;11.95;;;;;;;;;;6186619;23;20001;-79
2021/06/27 08:35:34;;;;;;;31.10;12.27;;;;;;;;;;6213210;23;20054;-75
2021/06/27 08:38:00;;;;;;;32.28;13.40;;;;;;;;;;6213259;23;20067;-75
2021/06/27 08:40:27;;;;;;;32.45;14.65;;;;;;;;;;6211678;23;20003;-74
2021/06/27 08:42:54;;;;;;;45.30;16.25;;;;;;;;;;6212949;23;20008;-75
2021/06/27 08:45:20;;;;;;;23.15;13.50;;;;;;;;;;6212619;23;20008;-75
2021/06/27 08:47:47;;;;;;;22.02;12.02;;;;;;;;;;6212717;23;20313;-77
2021/06/27 08:50:15;;;;;;;25.00;11.82;;;;;;;;;;6187327;23;20001;-74
2021/06/27 08:52:44;;;;;;;33.47;12.52;;;;;;;;;;6211716;23;20006;-75
2021/06/27 08:55:12;;;;;;;34.10;14.63;;;;;;;;;;6213617;23;20361;-75
2021/06/27 08:57:39;;;;;;;30.25;13.52;;;;;;;;;;6213380;23;20004;-74
2021/06/27 09:00:06;;;;;;;28.95;12.77;;;;;;;;;;6213126;23;20080;-74
2021/06/27 09:02:33;;;;;;;23.70;12.20;;;;;;;;;;6212992;23;20047;-76
2021/06/27 09:04:59;;;;;;;25.60;11.45;;;;;;;;;;6212333;23;20008;-75
2021/06/27 09:07:32;;;;;;;31.05;13.27;;;;;;;;;;6211798;23;20083;-75
2021/06/27 09:10:04;;;;;;;25.10;11.00;;;;;;;;;;6210989;23;20011;-76
2021/06/27 09:24:26;;;;;;;25.55;11.23;;;;;;;;;;5077577;28;20803;-74
2021/06/27 09:26:53;;;;;;;29.95;11.88;;;;;;;;;;5074415;28;20111;-74
2021/06/27 09:29:28;;;;;;;27.80;11.90;;;;;;;;;;5073073;28;20093;-75
2021/06/27 09:31:54;;;;;;;25.98;11.73;;;;;;;;;;5074317;28;20032;-73
2021/06/27 09:34:20;;;;;;;26.65;11.05;;;;;;;;;;5077480;28;20036;-74
2021/06/27 09:36:51;;;;;;;27.23;11.43;;;;;;;;;;5078197;28;20055;-74
2021/06/27 09:39:18;;;;;;;;;;;;;;;;;;5076758;28;20081;-74
2021/06/27 09:41:50;;;;;;;31.25;11.88;;;;;;;;;;5077707;28;19931;-74
2021/06/27 09:44:17;;;;;;;29.80;11.57;;;;;;;;;;5077619;28;20024;-74
2021/06/27 09:46:46;;;;;;;31.25;11.00;;;;;;;;;;5078042;28;20040;-77
2021/06/27 09:49:16;;;;;;;25.45;10.63;;;;;;;;;;5076012;28;20101;-78
2021/06/27 09:51:48;;;;;;;29.95;11.85;;;;;;;;;;5061520;28;20032;-77
2021/06/27 09:54:15;;;;;;;25.42;10.38;;;;;;;;;;5077742;28;20210;-78
2021/06/27 09:56:42;;;;;;;25.88;11.20;;;;;;;;;;5075821;28;20028;-78
2021/06/27 09:59:12;;;;;;;27.50;11.52;;;;;;;;;;5070622;28;20024;-78
2021/06/27 10:01:39;;;;;;;28.30;11.27;;;;;;;;;;5070719;28;20115;-78
2021/06/27 10:04:06;;;;;;;31.88;11.13;;;;;;;;;;5073165;28;20139;-77
2021/06/27 10:06:34;;;;;;;24.08;10.10;;;;;;;;;;5075478;28;20099;-77
2021/06/27 10:09:11;;;;;;;25.30;11.55;;;;;;;;;;5051963;28;20043;-81
2021/06/27 10:11:37;;;;;;;20.45;10.60;;;;;;;;;;5060972;28;20035;-80
2021/06/27 10:14:11;;;;;;;27.95;10.77;;;;;;;;;;5064488;28;20104;-76
2021/06/27 10:16:39;;;;;;;31.80;11.98;;;;;;;;;;5058917;28;20032;-77
2021/06/27 10:19:05;;;;;;;36.90;11.35;;;;;;;;;;5059857;28;20033;-76
2021/06/27 10:21:32;;;;;;;34.97;10.90;;;;;;;;;;5058822;28;20021;-77
2021/06/27 10:23:58;;;;;;;28.45;11.20;;;;;;;;;;5051597;28;20129;-76
2021/06/27 10:26:25;;;;;;;32.30;11.02;;;;;;;;;;5045588;28;20121;-76
2021/06/27 10:28:52;;;;;;;28.90;11.23;;;;;;;;;;5051615;28;20033;-76
2021/06/27 10:31:19;;;;;;;24.27;10.30;;;;;;;;;;5049348;28;20491;-76
2021/06/27 10:33:46;;;;;;;34.80;11.75;;;;;;;;;;5034153;28;20384;-75
2021/06/27 10:36:13;;;;;;;27.40;11.05;;;;;;;;;;5043900;28;20626;-74
2021/06/27 10:38:47;;;;;;;32.58;11.80;;;;;;;;;;5047869;28;20484;-74
2021/06/27 10:41:13;;;;;;;24.80;10.25;;;;;;;;;;5048819;28;20051;-74
2021/06/27 10:43:59;;;;;;;41.30;12.65;;;;;;;;;;5046363;28;20045;-76
2021/06/27 10:46:40;;;;;;;34.15;10.95;;;;;;;;;;5050359;28;20731;-74
2021/06/27 10:49:07;;;;;;;25.80;9.75;;;;;;;;;;5044935;28;20040;-73
2021/06/27 10:52:02;;;;;;;32.95;10.80;;;;;;;;;;5047377;28;20504;-75
2021/06/27 10:54:39;;;;;;;32.83;10.35;;;;;;;;;;5038675;28;20064;-74
2021/06/27 10:57:07;;;;;;;28.42;9.85;;;;;;;;;;5048657;28;20539;-76
2021/06/27 10:59:39;;;;;;;34.55;10.98;;;;;;;;;;5037993;28;20024;-74
2021/06/27 11:02:53;;;;;;;30.63;9.98;;;;;;;;;;5049284;28;20032;-76
2021/06/27 11:05:19;;;;;;;31.25;11.25;;;;;;;;;;5048731;28;20032;-74
2021/06/27 11:07:45;;;;;;;28.10;10.43;;;;;;;;;;5052378;28;20017;-74
2021/06/27 11:10:21;;;;;;;37.03;10.98;;;;;;;;;;5057159;28;20020;-74
2021/06/27 11:12:59;;;;;;;24.67;9.68;;;;;;;;;;5063227;28;20521;-77
2021/06/27 11:15:38;;;;;;;29.55;9.55;;;;;;;;;;5059121;28;20325;-78
2021/06/27 11:18:06;;;;;;;25.65;9.20;;;;;;;;;;5031406;28;20078;-76
2021/06/27 11:20:35;;;;;;;30.48;10.07;;;;;;;;;;5055090;28;20108;-75
2021/06/27 11:23:01;;;;;;;68.30;12.90;;;;;;;;;;5059078;28;20140;-76
2021/06/27 11:25:37;;;;;;;29.02;10.27;;;;;;;;;;5056810;28;20103;-75
2021/06/27 11:28:19;;;;;;;32.92;10.35;;;;;;;;;;5054949;28;20020;-75
2021/06/27 11:30:45;;;;;;;;;;;;;;;;;;5049196;28;20036;-75
2021/06/27 11:33:17;;;;;;;28.00;10.75;;;;;;;;;;5070693;28;19923;-75
2021/06/27 11:35:47;;;;;;;26.98;10.85;;;;;;;;;;5066786;28;20032;-76
2021/06/27 11:38:32;;;;;;;36.60;11.13;;;;;;;;;;5056196;28;20399;-77
2021/06/27 11:40:58;;;;;;;38.53;12.43;;;;;;;;;;5065592;28;20047;-77
2021/06/27 11:43:44;;;;;;;26.23;10.95;;;;;;;;;;5064597;28;20032;-78
2021/06/27 11:46:30;;;;;;;44.63;14.48;;;;;;;;;;5040071;28;20534;-77
2021/06/27 11:49:01;;;;;;;24.92;10.60;;;;;;;;;;5068870;28;20032;-76
2021/06/27 11:51:53;;;;;;;35.78;11.13;;;;;;;;;;5059090;28;20451;-77
2021/06/27 11:54:31;;;;;;;31.13;9.90;;;;;;;;;;5057673;28;20051;-79
2021/06/27 11:57:00;;;;;;;29.08;10.40;;;;;;;;;;5057038;28;20043;-77
2021/06/27 11:59:28;;;;;;;32.03;10.77;;;;;;;;;;5060398;28;20457;-76
2021/06/27 12:02:24;;;;;;;25.45;10.05;;;;;;;;;;5058413;28;20112;-77
2021/06/27 12:04:51;;;;;;;28.08;10.60;;;;;;;;;;5036933;28;20032;-77
2021/06/27 12:07:26;;;;;;;35.33;11.32;;;;;;;;;;5042187;28;20052;-78
2021/06/27 12:09:53;;;;;;;32.47;11.25;;;;;;;;;;5060144;28;20082;-78
2021/06/27 12:12:37;;;;;;;20.75;10.50;;;;;;;;;;5060235;28;20376;-81
2021/06/27 12:15:26;;;;;;;30.08;11.40;;;;;;;;;;5060903;28;20508;-78
2021/06/27 12:17:56;;;;;;;27.65;11.32;;;;;;;;;;5029967;28;20047;-80
2021/06/27 12:20:22;;;;;;;26.33;10.10;;;;;;;;;;5059075;28;20812;-78
2021/06/27 12:23:00;;;;;;;32.47;10.68;;;;;;;;;;5060950;28;20110;-78
2021/06/27 12:25:27;;;;;;;29.63;11.63;;;;;;;;;;5058954;28;20050;-79
2021/06/27 12:27:54;;;;;;;20.52;10.40;;;;;;;;;;5055690;28;20039;-83
2021/06/27 12:30:36;;;;;;;30.48;11.57;;;;;;;;;;5061635;28;20020;-84
2021/06/27 12:33:03;;;;;;;30.27;11.50;;;;;;;;;;5033522;28;20041;-81
2021/06/27 12:35:33;;;;;;;28.80;10.82;;;;;;;;;;5059531;28;20103;-82
2021/06/27 12:38:00;;;;;;;31.00;12.02;;;;;;;;;;5060873;28;20158;-82
2021/06/27 12:40:27;;;;;;;24.45;10.73;;;;;;;;;;5061292;28;20024;-82
2021/06/27 12:42:53;;;;;;;22.88;9.05;;;;;;;;;;5043798;28;20479;-82
2021/06/27 12:45:20;;;;;;;24.90;10.65;;;;;;;;;;5061607;28;20483;-79
2021/06/27 12:47:46;;;;;;;29.17;11.35;;;;;;;;;;5042104;28;20033;-83
2021/06/27 12:50:13;;;;;;;30.88;10.88;;;;;;;;;;5058993;28;20021;-80
2021/06/27 12:52:40;;;;;;;30.50;11.05;;;;;;;;;;5046437;28;20490;-81
2021/06/27 12:55:16;;;;;;;27.10;11.25;;;;;;;;;;5051161;28;20047;-80
2021/06/27 12:57:55;;;;;;;22.55;10.27;;;;;;;;;;5035935;28;20036;-85
2021/06/27 13:00:21;;;;;;;24.05;10.95;;;;;;;;;;5060840;28;20039;-81
2021/06/27 13:02:48;;;;;;;28.58;10.90;;;;;;;;;;5060404;28;20020;-82
2021/06/27 13:05:16;;;;;;;25.05;10.63;;;;;;;;;;5060646;28;20321;-81
2021/06/27 13:07:44;;;;;;;28.42;10.20;;;;;;;;;;5041293;28;20185;-81
2021/06/27 13:10:12;;;;;;;29.90;11.38;;;;;;;;;;5038321;28;20071;-81
2021/06/27 13:12:41;;;;;;;25.50;11.48;;;;;;;;;;5052332;28;20032;-81
2021/06/27 13:15:17;;;;;;;29.40;11.68;;;;;;;;;;5060359;28;20044;-82
2021/06/27 13:17:47;;;;;;;28.02;12.35;;;;;;;;;;5042065;28;20036;-82
2021/06/27 13:20:15;;;;;;;27.25;10.93;;;;;;;;;;5059173;28;20025;-81
2021/06/27 13:22:54;;;;;;;31.95;11.65;;;;;;;;;;5060403;28;20044;-81
2021/06/27 13:25:29;;;;;;;22.88;10.55;;;;;;;;;;5040966;28;20024;-82
2021/06/27 13:27:56;;;;;;;33.83;11.77;;;;;;;;;;5060835;28;20127;-81
2021/06/27 13:30:22;;;;;;;28.10;11.25;;;;;;;;;;5060151;28;20866;-82
2021/06/27 13:32:49;;;;;;;24.45;10.38;;;;;;;;;;5058009;28;20176;-81
2021/06/27 13:35:51;;;;;;;24.48;10.82;;;;;;;;;;5059126;28;20484;-82
2021/06/27 13:38:17;;;;;;;;;;;;;;;;;;4981670;28;20101;-81
2021/06/27 13:40:49;;;;;;;31.52;11.02;;;;;;;;;;5036740;28;19915;-82
2021/06/27 13:43:15;;;;;;;19.60;9.68;;;;;;;;;;5060589;28;20044;-82
2021/06/27 13:45:41;;;;;;;35.28;11.60;;;;;;;;;;5059509;28;20894;-81
2021/06/27 13:48:07;;;;;;;19.83;9.45;;;;;;;;;;5059601;28;20255;-81
2021/06/27 13:50:35;;;;;;;24.35;10.80;;;;;;;;;;5059529;28;20021;-81
2021/06/27 13:53:02;;;;;;;30.00;11.27;;;;;;;;;;5060773;28;20037;-82
2021/06/27 13:55:28;;;;;;;22.30;9.80;;;;;;;;;;5060292;28;20107;-81
2021/06/27 13:57:55;;;;;;;24.73;10.57;;;;;;;;;;5043703;28;20064;-81
2021/06/27 14:00:21;;;;;;;25.65;10.50;;;;;;;;;;5044547;28;20067;-81
2021/06/27 14:02:47;;;;;;;23.85;10.02;;;;;;;;;;5048949;28;20025;-81
2021/06/27 14:05:17;;;;;;;22.58;10.52;;;;;;;;;;5047357;28;20032;-84
2021/06/27 14:07:44;;;;;;;23.75;9.70;;;;;;;;;;5034852;28;20085;-78
2021/06/27 14:10:11;;;;;;;35.08;11.43;;;;;;;;;;5051073;28;20027;-84
2021/06/27 14:12:38;;;;;;;28.83;11.20;;;;;;;;;;5036476;28;20401;-85
2021/06/27 14:15:05;;;;;;;23.77;10.13;;;;;;;;;;5063998;28;20024;-85
2021/06/27 15:05:15;;;;;;;18.48;7.75;;;;;;;;;;4791609;29;20404;-89
2021/06/27 15:11:27;;;;;;;22.25;7.57;;;;;;;;;;4794509;29;20114;-87
2021/06/27 15:13:53;;;;;;;20.17;8.35;;;;;;;;;;4915665;28;20053;-81
2021/06/27 15:16:20;;;;;;;30.85;9.07;;;;;;;;;;5010867;28;20645;-81
2021/06/27 15:18:46;;;;;;;19.85;8.75;;;;;;;;;;5024957;28;20029;-79
2021/06/27 15:21:12;;;;;;;22.27;8.45;;;;;;;;;;5042748;28;20056;-79
2021/06/27 15:23:39;;;;;;;22.52;8.73;;;;;;;;;;5015439;28;20446;-79
2021/06/27 15:26:06;;;;;;;23.90;9.13;;;;;;;;;;5042420;28;20029;-80
2021/06/27 15:28:32;;;;;;;21.33;8.73;;;;;;;;;;5048847;28;20044;-80
2021/06/27 15:30:58;;;;;;;16.25;8.02;;;;;;;;;;5061628;28;20040;-79
2021/06/27 15:33:25;;;;;;;20.15;8.13;;;;;;;;;;5061330;28;20123;-80
2021/06/27 15:35:52;;;;;;;21.27;8.90;;;;;;;;;;5049789;28;20097;-81
2021/06/27 15:38:18;;;;;;;23.02;9.00;;;;;;;;;;5062610;28;20071;-81
2021/06/27 15:40:45;;;;;;;19.65;8.93;;;;;;;;;;5062208;28;20029;-74